createdAt,value
2022-12-26T00:02:23.108Z,21.25
2022-12-26T00:07:22.019Z,22.17
2022-12-26T00:12:20.706Z,22.67
2022-12-26T00:17:20.894Z,25.15
2022-12-26T00:22:19.870Z,21.95
2022-12-26T00:27:18.723Z,20.33
2022-12-26T00:32:18.381Z,19.58
2022-12-26T00:37:18.548Z,17.38
2022-12-26T00:42:17.400Z,17.67
2022-12-26T00:47:16.377Z,14.02
2022-12-26T00:52:15.205Z,13.57
2022-12-26T00:57:15.355Z,14.70
2022-12-26T01:02:28.076Z,14.18
2022-12-26T01:07:26.984Z,12.67
2022-12-26T01:12:27.576Z,14.23
2022-12-26T01:17:27.288Z,12.38
2022-12-26T01:22:26.800Z,10.45
2022-12-26T01:27:27.731Z,11.90
2022-12-26T01:32:28.231Z,12.50
2022-12-26T01:37:27.088Z,24.25
2022-12-26T01:42:28.246Z,23.15
2022-12-26T01:47:41.595Z,20.83
2022-12-26T01:52:46.437Z,19.65
2022-12-26T01:57:55.935Z,30.55
2022-12-26T02:03:13.161Z,21.55
2022-12-26T02:08:15.884Z,22.90
2022-12-26T02:13:18.335Z,16.23
2022-12-26T02:18:17.216Z,18.95
2022-12-26T02:24:02.927Z,18.10
2022-12-26T02:29:42.689Z,18.20
2022-12-26T02:34:52.215Z,17.98
2022-12-26T02:40:07.920Z,20.80
2022-12-26T02:45:32.058Z,18.98
2022-12-26T02:51:05.607Z,16.48
2022-12-26T02:56:29.363Z,15.52
2022-12-26T03:01:52.000Z,12.85
2022-12-26T03:07:15.898Z,14.88
2022-12-26T03:12:50.849Z,13.15
2022-12-26T03:17:53.407Z,13.75
2022-12-26T03:22:59.776Z,15.68
2022-12-26T03:27:58.704Z,15.27
2022-12-26T03:32:58.603Z,13.70
2022-12-26T03:38:04.173Z,13.02
2022-12-26T03:43:29.602Z,11.55
2022-12-26T03:48:51.300Z,10.85
2022-12-26T03:54:14.394Z,13.60
2022-12-26T03:59:34.026Z,85.43
2022-12-26T04:04:52.872Z,116.35
2022-12-26T04:10:15.878Z,25.10
2022-12-26T04:15:41.595Z,20.27
2022-12-26T04:20:49.920Z,26.40
2022-12-26T04:26:15.661Z,23.33
2022-12-26T04:31:39.905Z,26.60
2022-12-26T04:37:05.856Z,19.35
2022-12-26T04:42:25.232Z,21.02
2022-12-26T04:47:24.284Z,17.73
2022-12-26T04:52:23.071Z,19.23
2022-12-26T04:57:23.409Z,21.67
2022-12-26T05:02:39.558Z,21.08
2022-12-26T05:07:56.577Z,20.48
2022-12-26T05:12:57.099Z,19.88
2022-12-26T05:18:13.622Z,18.42
2022-12-26T05:23:37.259Z,19.05
2022-12-26T05:28:43.598Z,18.25
2022-12-26T05:33:59.914Z,17.38
2022-12-26T05:38:59.106Z,17.90
2022-12-26T05:43:59.588Z,33.95
2022-12-26T05:48:58.421Z,48.13
2022-12-26T05:53:57.393Z,32.25
2022-12-26T05:58:57.593Z,29.45
2022-12-26T06:04:00.290Z,56.20
2022-12-26T06:08:59.523Z,43.43
2022-12-26T06:13:58.917Z,37.80
2022-12-26T06:18:59.038Z,46.40
2022-12-26T06:23:57.824Z,45.20
2022-12-26T06:28:56.647Z,40.75
2022-12-26T06:34:01.462Z,23.65
2022-12-26T06:39:01.260Z,19.40
2022-12-26T06:44:00.177Z,35.55
2022-12-26T06:49:00.502Z,45.30
2022-12-26T06:54:11.975Z,43.15
2022-12-26T06:59:12.824Z,35.15
2022-12-26T07:04:14.469Z,33.40
2022-12-26T07:09:17.002Z,22.50
2022-12-26T07:14:18.450Z,17.98
2022-12-26T07:19:18.731Z,21.58
2022-12-26T07:24:21.094Z,20.63
2022-12-26T07:29:20.300Z,21.63
2022-12-26T07:34:20.684Z,26.80
2022-12-26T07:39:19.919Z,32.45
2022-12-26T07:44:20.252Z,23.70
2022-12-26T07:49:20.444Z,19.02
2022-12-26T07:54:22.005Z,19.58
2022-12-26T07:59:20.866Z,41.25
2022-12-26T08:04:21.634Z,37.50
2022-12-26T08:09:22.019Z,46.85
2022-12-26T08:14:23.741Z,26.93
2022-12-26T08:19:25.931Z,22.80
2022-12-26T08:24:28.117Z,23.75
2022-12-26T08:29:27.312Z,20.35
2022-12-26T08:34:33.798Z,20.48
2022-12-26T08:39:34.862Z,20.38
2022-12-26T08:44:36.619Z,19.90
2022-12-26T08:49:40.654Z,20.48
2022-12-26T08:54:39.749Z,20.40
2022-12-26T08:59:38.585Z,22.90
2022-12-26T09:04:38.869Z,23.45
2022-12-26T09:09:37.633Z,25.25
2022-12-26T09:14:36.936Z,25.52
2022-12-26T09:19:35.962Z,22.98
2022-12-26T09:24:37.529Z,23.90
2022-12-26T09:29:39.264Z,22.92
2022-12-26T09:34:38.599Z,24.55
2022-12-26T09:39:38.771Z,20.13
2022-12-26T09:44:49.345Z,18.70
2022-12-26T09:49:55.187Z,16.50
2022-12-26T09:54:59.996Z,13.90
2022-12-26T10:00:17.014Z,12.48
2022-12-26T10:05:22.185Z,11.93
2022-12-26T10:10:31.391Z,9.85
2022-12-26T10:15:45.489Z,8.73
2022-12-26T10:20:55.610Z,8.15
2022-12-26T10:26:02.402Z,7.25
2022-12-26T10:31:09.200Z,7.80
2022-12-26T10:36:17.816Z,6.70
2022-12-26T10:41:29.936Z,6.82
2022-12-26T10:46:47.402Z,6.18
2022-12-26T10:51:46.827Z,8.15
2022-12-26T10:56:51.001Z,4.97
2022-12-26T11:01:51.045Z,8.85
2022-12-26T11:06:54.984Z,6.75
2022-12-26T11:11:57.810Z,7.30
2022-12-26T11:16:58.831Z,6.13
2022-12-26T11:22:21.276Z,6.47
2022-12-26T11:27:28.095Z,5.38
2022-12-26T11:32:30.029Z,6.70
2022-12-26T11:37:32.700Z,9.10
2022-12-26T11:47:32.221Z,6.82
2022-12-26T11:52:38.708Z,9.90
2022-12-26T11:57:39.354Z,8.23
2022-12-26T12:02:42.610Z,4.95
2022-12-26T12:07:52.378Z,6.70
2022-12-26T12:12:58.695Z,6.28
2022-12-26T12:18:09.190Z,5.60
2022-12-26T12:23:25.845Z,4.20
2022-12-26T12:28:49.804Z,4.05
2022-12-26T12:34:02.940Z,4.30
2022-12-26T12:39:07.993Z,4.25
2022-12-26T12:44:15.009Z,4.20
2022-12-26T12:49:27.048Z,4.78
2022-12-26T12:55:03.243Z,4.75
2022-12-26T13:00:14.395Z,4.18
2022-12-26T13:05:35.866Z,4.00
2022-12-26T13:10:39.039Z,4.18
2022-12-26T13:15:44.906Z,4.63
2022-12-26T13:20:47.939Z,4.53
2022-12-26T13:25:53.508Z,4.95
2022-12-26T13:30:56.928Z,4.65
2022-12-26T13:36:01.843Z,4.82
2022-12-26T13:41:25.009Z,4.95
2022-12-26T13:46:56.566Z,11.70
2022-12-26T13:52:00.215Z,26.23
2022-12-26T13:57:29.488Z,9.25
2022-12-26T14:03:20.505Z,6.25
2022-12-26T14:08:33.337Z,6.03
2022-12-26T14:13:52.576Z,6.88
2022-12-26T14:18:58.845Z,9.02
2022-12-26T14:24:11.830Z,9.85
2022-12-26T14:29:20.974Z,9.52
2022-12-26T14:34:31.612Z,8.68
2022-12-26T14:39:41.181Z,14.23
2022-12-26T14:44:44.491Z,14.75
2022-12-26T14:49:44.359Z,19.60
2022-12-26T14:54:51.142Z,17.23
2022-12-26T15:00:15.866Z,21.58
2022-12-26T15:05:22.818Z,32.05
2022-12-26T15:10:59.163Z,21.00
2022-12-26T15:16:28.918Z,19.38
2022-12-26T15:21:57.373Z,23.92
2022-12-26T15:27:21.450Z,34.72
2022-12-26T15:32:30.660Z,43.67
2022-12-26T15:37:52.331Z,54.17
2022-12-26T15:43:12.713Z,41.88
2022-12-26T15:48:26.535Z,35.67
2022-12-26T15:53:38.649Z,41.50
2022-12-26T15:59:05.714Z,55.58
2022-12-26T16:04:20.295Z,63.33
2022-12-26T16:09:37.322Z,66.70
2022-12-26T16:14:39.292Z,87.18
2022-12-26T16:19:41.027Z,80.55
2022-12-26T16:24:43.252Z,54.40
2022-12-26T16:29:52.971Z,49.00
2022-12-26T16:34:54.283Z,48.17
2022-12-26T16:40:25.493Z,47.88
2022-12-26T16:45:25.536Z,46.85
2022-12-26T16:50:28.707Z,47.05
2022-12-26T16:55:37.878Z,49.50
2022-12-26T17:00:37.470Z,54.45
2022-12-26T17:05:39.231Z,51.78
2022-12-26T17:10:52.400Z,53.63
2022-12-26T17:16:07.427Z,46.28
2022-12-26T17:21:30.065Z,46.38
2022-12-26T17:26:31.840Z,51.77
2022-12-26T17:31:35.999Z,48.63
2022-12-26T17:41:57.865Z,50.05
2022-12-26T17:46:56.717Z,53.23
2022-12-26T17:52:01.586Z,52.80
2022-12-26T17:57:02.078Z,49.33
2022-12-26T18:02:01.031Z,51.40
2022-12-26T18:06:59.888Z,52.33
2022-12-26T18:11:58.728Z,49.58
2022-12-26T18:17:00.395Z,67.80
2022-12-26T18:21:59.105Z,63.85
2022-12-26T18:26:58.571Z,59.67
2022-12-26T18:31:58.906Z,70.22
2022-12-26T18:36:57.693Z,66.78
2022-12-26T18:41:56.457Z,66.88
2022-12-26T18:46:55.231Z,56.85
2022-12-26T18:51:55.420Z,55.97
2022-12-26T18:56:54.148Z,54.10
2022-12-26T19:01:53.012Z,53.50
2022-12-26T19:06:53.459Z,54.42
2022-12-26T19:11:53.595Z,59.92
2022-12-26T19:16:52.400Z,63.42
2022-12-26T19:21:51.306Z,56.47
2022-12-26T19:26:50.087Z,55.05
2022-12-26T19:31:50.256Z,52.50
2022-12-26T19:36:49.009Z,48.40
2022-12-26T19:41:47.829Z,47.65
2022-12-26T19:46:47.043Z,45.50
2022-12-26T19:51:47.645Z,46.80
2022-12-26T19:56:46.505Z,44.85
2022-12-26T20:01:45.483Z,47.60
2022-12-26T20:06:44.415Z,45.67
2022-12-26T20:11:49.441Z,45.15
2022-12-26T20:17:08.810Z,42.83
2022-12-26T20:22:09.513Z,52.78
2022-12-26T20:27:10.304Z,45.65
2022-12-26T20:32:12.955Z,36.83
2022-12-26T20:37:14.008Z,33.15
2022-12-26T20:42:17.849Z,29.10
2022-12-26T20:47:18.738Z,34.10
2022-12-26T20:52:19.497Z,35.42
2022-12-26T20:57:21.015Z,34.13
2022-12-26T21:02:20.684Z,26.00
2022-12-26T21:07:21.437Z,35.72
2022-12-26T21:12:22.854Z,37.03
2022-12-26T21:17:21.977Z,36.05
2022-12-26T21:22:24.782Z,34.35
2022-12-26T21:27:30.435Z,30.48
2022-12-26T21:32:31.035Z,34.15
2022-12-26T21:37:51.625Z,35.67
2022-12-26T21:42:53.118Z,30.60
2022-12-26T21:47:52.928Z,25.17
2022-12-26T21:52:53.442Z,25.92
2022-12-26T21:57:54.597Z,25.75
2022-12-26T22:03:10.662Z,33.42
2022-12-26T22:08:12.419Z,34.45
2022-12-26T22:13:13.514Z,39.83
2022-12-26T22:18:13.484Z,37.30
2022-12-26T22:23:13.762Z,37.85
2022-12-26T22:28:20.176Z,39.08
2022-12-26T22:33:21.950Z,40.92
2022-12-26T22:38:22.340Z,49.03
2022-12-26T22:43:22.577Z,44.58
2022-12-26T22:48:22.381Z,42.08
2022-12-26T22:53:24.526Z,37.63
2022-12-26T22:58:27.862Z,38.05
2022-12-26T23:03:28.195Z,36.53
2022-12-26T23:08:29.992Z,33.88
2022-12-26T23:13:32.653Z,37.15
2022-12-26T23:18:59.049Z,39.10
2022-12-26T23:23:58.174Z,40.08
2022-12-26T23:29:15.549Z,32.70
2022-12-26T23:34:14.498Z,32.00
2022-12-26T23:39:13.632Z,28.83
2022-12-26T23:44:13.942Z,26.98
2022-12-26T23:49:14.203Z,29.40
2022-12-26T23:54:13.074Z,28.63
2022-12-26T23:59:13.244Z,28.67
